Bookmark and Share
Track history (hours):
 

Stamford Pioneer

Last reported at 2014-Apr-17 23:25 UTC. Time now 2014-Apr-23 09:19 UTC.
Position N 01°13' E 103°30'.

Length 180 m; draft 10.2 m.

Type: Cargo ship. MMSI: 477462800.

NotesDate/timePositionNaut miles runAvg speedWind from/ knotsBaromVisibWave heightAir tempDewpointWater temp
2014-Apr-17 23:25N 01°13' E 103°30'1011.9
2014-Apr-17 22:33N 01°10' E 103°40'9 9.3
2014-Apr-17 21:33N 01°11' E 103°50'8 8.3
2014-Apr-17 20:33N 01°15' E 103°57'2 0.1
2014-Apr-17 04:33N 01°17' E 103°57'  
2014-Apr-11 13:26N 23°05' E 119°43'62 9.8
2014-Apr-11 07:04N 24°06' E 119°57'32911.5
2014-Apr-10 02:26N 28°59' E 122°44'1111.8
2014-Apr-10 01:32N 29°08' E 122°50'1211.6
2014-Apr-10 00:30N 29°19' E 122°56'1111.4
2014-Apr-09 23:31N 29°29' E 123°01'2211.2
2014-Apr-09 21:33N 29°49' E 123°13'1211.5
2014-Apr-09 20:32N 29°59' E 123°19'81 9.6
2014-Apr-09 12:09N 31°06' E 122°25'4211.6
2014-Apr-09 08:33N 31°21' E 121°40'1110.6
2014-Apr-09 07:33N 31°26' E 121°29'1311.8
2014-Apr-09 06:30N 31°35' E 121°18'1913.6
2014-Apr-09 05:07N 31°46' E 121°01'811.1
2014-Apr-09 04:24N 31°51' E 120°54'1112.7
2014-Apr-09 03:33N 32°01' E 120°48'1110.8
2014-Apr-09 02:33N 32°01' E 120°35'9 9.1
2014-Apr-09 01:33N 32°02' E 120°24'1111.2
2014-Apr-09 00:33N 31°56' E 120°13'1111.1
2014-Apr-08 23:33N 31°59' E 120°00'7 6.2
2014-Apr-08 22:24N 32°05' E 119°56'0 0.0
2014-Apr-08 21:11N 32°05' E 119°56'0 0.0
2014-Apr-08 20:29N 32°05' E 119°56'0 0.0
2014-Apr-08 19:05N 32°05' E 119°56'0 0.1
2014-Apr-08 18:20N 32°05' E 119°56'0 0.1
2014-Apr-08 17:29N 32°05' E 119°56'0 0.0
2014-Apr-08 16:29N 32°05' E 119°56'0 0.0
2014-Apr-08 15:29N 32°05' E 119°56'0 0.0
2014-Apr-08 14:30N 32°05' E 119°56'0 0.0
2014-Apr-08 13:32N 32°05' E 119°56'0 0.0
2014-Apr-08 11:33N 32°05' E 119°56'8 7.6
2014-Apr-08 10:31N 32°12' E 119°53'  

Dump ship's entire track history

sailing weather and tide predictions

Stamford Pioneer — VRJD7 — position and weather